Time;durP1;ratioP1;P1;durP2;ratioP2;P2;SDS_P1;SDS_P2;PMS_P1;PMS_P2;Temp;Humidity;BMP_temperature;BMP_pressure;BME280_temperature;BME280_humidity;BME280_pressure;Samples;Min_cycle;Max_cycle;Signal;HPM_P1;HPM_P2
2024/01/24 00:01:16;;;;;;;13.60;4.70;;;;;;;4.15;62.11;101387.40;104562;1266;61916;-60
2024/01/24 00:03:45;;;;;;;16.50;7.30;;;;;;;4.12;62.09;101388.55;104413;1269;63780;-61
2024/01/24 00:06:12;;;;;;;14.80;6.00;;;;;;;4.06;62.15;101389.95;104576;1267;59788;-60
2024/01/24 00:08:40;;;;;;;10.60;4.90;;;;;;;4.02;62.23;101388.05;104415;1272;59658;-65
2024/01/24 00:11:08;;;;;;;12.20;6.30;;;;;;;3.97;62.28;101385.98;104553;1269;64076;-66
2024/01/24 00:13:35;;;;;;;11.20;4.40;;;;;;;3.93;62.43;101384.36;104544;1266;61377;-67
2024/01/24 00:16:04;;;;;;;8.60;3.40;;;;;;;3.88;62.52;101384.17;104964;1269;63858;-69
2024/01/24 00:18:31;;;;;;;14.10;4.00;;;;;;;3.92;62.48;101380.23;104842;1272;59782;-63
2024/01/24 00:21:00;;;;;;;8.70;3.70;;;;;;;4.01;62.31;101380.27;104816;1269;59544;-67
2024/01/24 00:23:27;;;;;;;10.50;3.90;;;;;;;4.06;62.34;101381.28;104933;1267;64098;-72
2024/01/24 00:25:55;;;;;;;11.50;5.20;;;;;;;4.14;62.29;101375.42;104438;1266;61489;-65
2024/01/24 00:28:26;;;;;;;10.80;4.10;;;;;;;4.20;62.24;101369.14;104404;1272;63759;-64
2024/01/24 00:30:54;;;;;;;11.70;4.60;;;;;;;4.24;62.20;101369.01;105029;1266;59795;-64
2024/01/24 00:33:23;;;;;;;9.60;4.50;;;;;;;4.22;62.24;101369.23;104343;1272;59804;-62
2024/01/24 00:35:50;;;;;;;14.60;5.30;;;;;;;4.18;62.25;101365.39;104478;1269;64202;-61
2024/01/24 00:38:18;;;;;;;9.10;4.50;;;;;;;4.11;62.29;101365.83;104370;1267;61379;-63
2024/01/24 00:40:45;;;;;;;14.00;6.90;;;;;;;4.05;62.35;101360.84;104369;1272;62513;-64
2024/01/24 00:43:13;;;;;;;16.40;5.60;;;;;;;3.99;62.29;101358.12;104558;1266;61456;-66
2024/01/24 00:45:41;;;;;;;17.80;7.50;;;;;;;3.89;62.31;101358.31;104693;1266;60090;-64
2024/01/24 00:48:08;;;;;;;14.50;6.40;;;;;;;3.83;62.48;101362.85;104249;1266;64130;-68
2024/01/24 00:50:36;;;;;;;10.80;3.80;;;;;;;3.81;62.61;101357.55;104699;1271;60385;-66
2024/01/24 00:53:04;;;;;;;9.70;4.40;;;;;;;3.86;62.52;101356.33;104408;1267;62551;-64
2024/01/24 00:55:32;;;;;;;10.00;4.30;;;;;;;3.90;62.53;101358.95;104811;1267;59750;-64
2024/01/24 00:57:59;;;;;;;10.10;4.50;;;;;;;3.92;62.52;101358.16;106444;1271;59769;-65
2024/01/24 01:00:27;;;;;;;12.60;4.20;;;;;;;3.94;62.57;101353.29;104506;1266;62852;-65
2024/01/24 01:02:55;;;;;;;12.50;5.60;;;;;;;3.92;62.74;101354.02;104365;1271;61529;-67
2024/01/24 01:05:22;;;;;;;11.90;5.50;;;;;;;3.90;62.80;101354.75;104414;1266;63756;-65
2024/01/24 01:07:50;;;;;;;12.60;5.10;;;;;;;3.89;62.81;101352.39;105261;1266;59759;-62
2024/01/24 01:10:17;;;;;;;14.40;6.00;;;;;;;3.85;62.87;101350.61;104479;1269;59660;-61
2024/01/24 01:12:45;;;;;;;13.60;4.80;;;;;;;3.80;62.91;101345.63;104383;1267;62901;-63
2024/01/24 01:15:13;;;;;;;16.20;5.10;;;;;;;3.74;62.97;101348.94;104434;1267;61628;-62
2024/01/24 01:17:41;;;;;;;14.40;4.50;;;;;;;3.74;62.99;101349.65;104466;1265;63934;-66
2024/01/24 01:20:14;;;;;;;12.80;4.10;;;;;;;3.80;62.89;101344.41;104621;1266;59795;-65
2024/01/24 01:22:41;;;;;;;10.50;4.00;;;;;;;3.83;62.83;101342.70;104653;1269;59688;-62
2024/01/24 01:25:09;;;;;;;10.60;4.30;;;;;;;3.88;62.83;101342.88;104610;1266;64574;-65
2024/01/24 01:27:36;;;;;;;11.50;5.10;;;;;;;3.92;62.88;101342.92;104484;1266;61573;-62
2024/01/24 01:30:05;;;;;;;12.20;5.20;;;;;;;3.93;62.98;101338.19;104419;1269;63723;-63
2024/01/24 01:32:33;;;;;;;10.00;4.20;;;;;;;3.95;63.02;101332.76;105077;1269;59694;-62
2024/01/24 01:35:01;;;;;;;12.40;5.20;;;;;;;3.93;63.02;101331.77;104950;1266;59680;-66
2024/01/24 01:37:28;;;;;;;10.60;4.60;;;;;;;3.89;63.07;101334.87;105046;1267;64137;-66
2024/01/24 01:39:56;;;;;;;10.80;4.50;;;;;;;3.85;63.09;101336.41;104389;1269;61410;-67
2024/01/24 01:42:24;;;;;;;11.70;5.30;;;;;;;3.81;63.04;101335.50;104258;1269;64406;-64
2024/01/24 01:44:52;;;;;;;11.90;5.20;;;;;;;3.80;63.01;101332.42;105029;1267;59629;-63
2024/01/24 01:47:21;;;;;;;11.40;4.80;;;;;;;3.75;63.12;101328.44;104577;1269;59823;-65
2024/01/24 01:49:49;;;;;;;12.50;4.60;;;;;;;3.76;63.00;101328.91;104354;1266;64136;-68
2024/01/24 01:52:17;;;;;;;12.50;4.90;;;;;;;3.83;62.87;101329.17;104174;1274;60118;-68
2024/01/24 01:54:44;;;;;;;11.00;3.90;;;;;;;3.91;62.82;101324.02;104275;1267;75153;-66
2024/01/24 01:57:12;;;;;;;9.40;4.00;;;;;;;3.99;62.79;101323.91;104327;1266;59833;-66
2024/01/24 01:59:43;;;;;;;9.70;4.60;;;;;;;4.07;62.78;101324.48;104172;1272;60182;-62
2024/01/24 02:02:13;;;;;;;13.10;5.30;;;;;;;4.09;62.73;101323.51;104184;1269;64121;-64
2024/01/24 02:04:41;;;;;;;12.90;4.10;;;;;;;4.12;62.81;101324.83;104598;1272;71398;-62
2024/01/24 02:07:08;;;;;;;15.50;6.90;;;;;;;4.10;62.79;101326.63;104495;1272;63766;-63
2024/01/24 02:09:36;;;;;;;13.50;6.00;;;;;;;4.05;62.73;101327.66;104403;1266;59842;-62
2024/01/24 02:12:04;;;;;;;13.70;6.00;;;;;;;4.03;62.77;101330.02;104454;1267;59740;-62
2024/01/24 02:14:31;;;;;;;11.10;5.10;;;;;;;3.99;62.72;101332.41;104305;1272;64195;-63
2024/01/24 02:16:59;;;;;;;9.10;4.70;;;;;;;3.93;62.72;101330.58;104340;1268;61402;-63
2024/01/24 02:19:27;;;;;;;8.40;3.60;;;;;;;3.87;62.66;101321.58;104874;1266;63913;-63
2024/01/24 02:21:54;;;;;;;11.70;4.70;;;;;;;3.93;62.57;101322.24;105041;1267;59642;-60
2024/01/24 02:24:22;;;;;;;11.70;4.00;;;;;;;3.97;62.49;101321.20;104903;1267;59355;-59
2024/01/24 02:26:50;;;;;;;15.30;6.70;;;;;;;4.00;62.43;101314.48;105075;1267;62831;-60
2024/01/24 02:29:18;;;;;;;10.10;4.90;;;;;;;3.98;62.49;101312.48;105297;1264;61463;-57
2024/01/24 02:31:45;;;;;;;12.10;4.80;;;;;;;3.91;62.58;101309.45;104654;1267;63763;-58
2024/01/24 02:34:13;;;;;;;13.00;6.20;;;;;;;3.87;62.73;101307.66;104733;1265;60022;-58
2024/01/24 02:36:41;;;;;;;13.40;6.70;;;;;;;3.84;62.79;101300.86;104605;1268;59682;-58
2024/01/24 02:39:08;;;;;;;10.20;5.10;;;;;;;3.81;62.84;101307.39;104731;1267;64162;-59
2024/01/24 02:41:39;;;;;;;11.70;5.20;;;;;;;3.77;62.87;101318.14;104518;1264;61413;-61
2024/01/24 02:44:07;;;;;;;12.00;5.60;;;;;;;3.72;62.92;101328.01;104918;1265;64476;-59
2024/01/24 02:46:35;;;;;;;15.10;6.20;;;;;;;3.69;62.92;101326.41;104538;1264;60345;-60
2024/01/24 02:49:03;;;;;;;13.70;6.20;;;;;;;3.66;62.99;101328.77;104643;1263;59683;-60
2024/01/24 02:51:30;;;;;;;12.10;5.00;;;;;;;3.64;63.01;101328.50;105133;1264;64068;-59
2024/01/24 02:53:58;;;;;;;12.40;4.50;;;;;;;3.68;63.05;101331.81;104618;1264;61414;-57
2024/01/24 02:56:26;;;;;;;11.30;5.00;;;;;;;3.76;62.92;101327.02;104527;1265;64204;-59
2024/01/24 02:58:53;;;;;;;12.20;5.60;;;;;;;3.84;62.87;101325.16;104746;1265;59699;-60
2024/01/24 03:01:21;;;;;;;12.90;5.10;;;;;;;3.91;62.87;101325.41;104732;1264;59775;-59
2024/01/24 03:03:49;;;;;;;11.60;4.40;;;;;;;4.00;62.87;101325.80;105515;1264;64190;-57
2024/01/24 03:06:16;;;;;;;12.50;4.80;;;;;;;4.07;62.88;101323.44;104507;1266;69191;-59
2024/01/24 03:08:53;;;;;;;14.10;6.00;;;;;;;4.08;62.75;101318.20;104513;1266;63803;-59
2024/01/24 03:11:21;;;;;;;21.00;6.60;;;;;;;4.07;62.78;101318.56;105325;1266;59709;-61
2024/01/24 03:13:49;;;;;;;15.10;6.10;;;;;;;4.08;62.71;101317.48;105527;1263;62068;-59
2024/01/24 03:16:17;;;;;;;11.20;5.10;;;;;;;4.06;62.71;101310.80;104658;1263;63049;-59
2024/01/24 03:18:45;;;;;;;14.50;7.50;;;;;;;4.00;62.67;101301.97;105244;1257;61412;-60
2024/01/24 03:21:17;;;;;;;13.90;6.90;;;;;;;3.94;62.70;101303.25;105207;1257;63783;-58
2024/01/24 03:23:45;;;;;;;11.00;5.60;;;;;;;3.87;62.78;101307.50;105183;1259;60828;-56
2024/01/24 03:26:14;;;;;;;11.60;5.10;;;;;;;3.81;62.76;101306.35;105113;1257;60623;-59
2024/01/24 03:28:42;;;;;;;13.10;5.90;;;;;;;3.81;62.62;101308.77;105158;1257;64913;-59
2024/01/24 03:31:10;;;;;;;12.40;4.70;;;;;;;3.83;62.68;101306.78;105288;1257;61331;-58
2024/01/24 03:45:41;;;;;;;12.40;5.80;;;;;;;3.98;63.24;101304.39;102938;1283;604528;-59
2024/01/24 03:48:09;;;;;;;15.70;6.10;;;;;;;4.71;61.50;101301.31;104407;1272;129091;-60
2024/01/24 03:50:37;;;;;;;25.30;17.10;;;;;;;4.72;61.42;101298.80;104377;1270;60821;-61
2024/01/24 03:53:05;;;;;;;13.40;6.90;;;;;;;4.68;61.44;101297.27;104633;1271;63537;-64
2024/01/24 03:55:33;;;;;;;14.80;6.20;;;;;;;4.63;61.55;101300.94;104404;1268;62060;-62
2024/01/24 03:58:00;;;;;;;14.00;5.60;;;;;;;4.57;61.69;101295.27;104730;1266;64886;-61
2024/01/24 04:00:28;;;;;;;17.30;6.90;;;;;;;4.50;61.70;101287.52;104434;1266;59874;-60
2024/01/24 04:02:56;;;;;;;16.70;6.50;;;;;;;4.43;61.83;101284.16;104220;1267;59255;-63
2024/01/24 04:05:23;;;;;;;14.50;7.50;;;;;;;4.38;61.82;101280.02;104414;1267;64011;-65
2024/01/24 04:07:51;;;;;;;14.10;6.70;;;;;;;4.33;61.91;101277.98;104271;1269;61424;-56
2024/01/24 04:10:19;;;;;;;15.40;8.00;;;;;;;4.26;61.94;101281.55;104410;1271;63750;-68
2024/01/24 04:12:47;;;;;;;21.00;9.10;;;;;;;4.17;61.94;101279.82;104398;1269;59640;-57
2024/01/24 04:15:15;;;;;;;15.10;6.90;;;;;;;4.10;62.09;101279.38;104435;1272;59661;-61
2024/01/24 04:17:42;;;;;;;17.70;7.40;;;;;;;4.11;62.12;101276.41;104311;1272;64170;-61
2024/01/24 04:20:10;;;;;;;20.40;10.50;;;;;;;4.13;62.07;101269.89;104220;1270;61354;-63
2024/01/24 04:22:38;;;;;;;32.10;13.70;;;;;;;4.15;62.06;101263.58;104087;1273;63793;-63
2024/01/24 04:25:06;;;;;;;28.90;13.10;;;;;;;4.17;62.14;101255.15;104299;1274;59678;-66
2024/01/24 04:27:34;;;;;;;19.30;8.10;;;;;;;4.21;62.18;101256.36;104762;1269;59698;-63
2024/01/24 04:30:02;;;;;;;17.70;6.80;;;;;;;4.22;62.28;101258.58;104331;1268;64060;-62
2024/01/24 04:32:30;;;;;;;18.20;9.10;;;;;;;4.20;62.33;101251.91;105205;1263;61362;-62
2024/01/24 04:34:58;;;;;;;19.00;8.90;;;;;;;4.17;62.44;101253.06;104782;1260;63677;-62
2024/01/24 04:37:26;;;;;;;20.50;10.10;;;;;;;4.17;62.50;101257.75;105367;1259;59707;-59
2024/01/24 04:39:53;;;;;;;21.70;8.10;;;;;;;4.17;62.61;101258.96;104835;1259;59515;-59
2024/01/24 04:42:21;;;;;;;16.10;8.30;;;;;;;4.14;62.52;101263.95;104819;1263;64132;-60
2024/01/24 04:44:49;;;;;;;18.40;6.80;;;;;;;4.08;62.51;101270.44;104843;1266;60253;-60
2024/01/24 04:47:17;;;;;;;15.00;6.50;;;;;;;4.04;62.57;101277.36;104883;1261;63781;-57
2024/01/24 04:49:45;;;;;;;16.70;7.70;;;;;;;4.00;62.66;101280.28;104677;1265;59653;-58
2024/01/24 04:52:16;;;;;;;11.40;5.20;;;;;;;3.96;62.69;101281.48;104895;1260;59672;-59
2024/01/24 04:54:43;;;;;;;16.10;6.30;;;;;;;3.99;62.62;101283.98;104705;1261;64254;-57
2024/01/24 04:57:10;;;;;;;14.70;6.60;;;;;;;4.04;62.60;101278.95;105045;1263;60227;-59
2024/01/24 04:59:40;;;;;;;16.10;6.80;;;;;;;4.09;62.64;101277.67;105060;1261;63740;-60
2024/01/24 05:02:19;;;;;;;14.70;4.90;;;;;;;4.17;62.63;101281.91;104924;1260;59707;-61
2024/01/24 05:04:47;;;;;;;17.00;6.60;;;;;;;4.24;62.60;101283.20;105011;1265;59768;-61
2024/01/24 05:07:15;;;;;;;13.30;6.70;;;;;;;4.31;62.44;101279.63;104913;1261;67521;-60
2024/01/24 05:09:43;;;;;;;70.20;33.30;;;;;;;4.33;62.42;101273.64;104818;1266;60247;-59
2024/01/24 05:12:11;;;;;;;30.70;17.30;;;;;;;4.33;62.41;101272.42;104821;1266;64232;-59
2024/01/24 05:14:40;;;;;;;49.20;26.60;;;;;;;4.30;62.41;101270.44;105865;1261;59867;-61
2024/01/24 05:17:07;;;;;;;84.90;51.10;;;;;;;4.26;62.42;101268.35;104644;1260;59667;-65
2024/01/24 05:19:35;;;;;;;39.60;21.20;;;;;;;4.22;62.36;101268.16;104890;1260;64525;-59
2024/01/24 05:22:03;;;;;;;25.60;17.70;;;;;;;4.19;62.39;101276.27;106843;1263;61874;-69
2024/01/24 05:24:31;;;;;;;23.40;11.90;;;;;;;4.15;62.40;101286.48;104868;1264;63842;-58
2024/01/24 05:26:58;;;;;;;14.00;8.20;;;;;;;4.13;62.39;101290.92;104829;1259;59749;-64
2024/01/24 05:29:26;;;;;;;16.30;6.30;;;;;;;4.13;62.36;101288.64;105404;1264;59899;-65
2024/01/24 05:31:53;;;;;;;13.30;6.20;;;;;;;4.19;62.25;101292.40;104813;1265;62920;-60
2024/01/24 05:34:21;;;;;;;13.30;7.10;;;;;;;4.22;62.08;101299.77;104752;1266;61380;-62
2024/01/24 05:36:49;;;;;;;16.70;6.40;;;;;;;4.24;62.12;101297.07;104891;1260;64417;-61
2024/01/24 05:39:16;;;;;;;17.10;7.40;;;;;;;4.29;62.23;101285.41;104862;1260;60124;-67
2024/01/24 05:41:44;;;;;;;15.10;6.50;;;;;;;4.32;62.36;101277.35;104648;1261;59527;-63
2024/01/24 05:44:12;;;;;;;19.10;7.60;;;;;;;4.32;62.44;101282.36;104783;1260;64138;-62
2024/01/24 05:46:39;;;;;;;13.30;6.00;;;;;;;4.32;62.49;101284.10;104677;1264;60269;-61
2024/01/24 05:49:07;;;;;;;17.00;8.10;;;;;;;4.31;62.48;101282.22;104972;1265;63664;-63
2024/01/24 05:51:35;;;;;;;16.50;7.40;;;;;;;4.28;62.48;101276.96;104597;1264;59655;-61
2024/01/24 05:54:04;;;;;;;16.00;7.70;;;;;;;4.22;62.54;101273.20;105074;1260;59744;-60
2024/01/24 05:56:32;;;;;;;16.00;8.40;;;;;;;4.16;62.61;101279.86;104707;1263;64186;-61
2024/01/24 05:58:59;;;;;;;14.60;7.60;;;;;;;4.09;62.62;101286.56;104711;1263;61337;-60
2024/01/24 06:01:27;;;;;;;18.20;9.10;;;;;;;4.00;62.68;101278.56;104620;1263;63725;-67
2024/01/24 06:03:54;;;;;;;15.70;6.60;;;;;;;4.00;62.70;101283.25;105387;1260;59835;-68
2024/01/24 06:06:22;;;;;;;18.60;8.40;;;;;;;3.99;62.79;101287.78;104821;1264;59754;-63
2024/01/24 06:08:50;;;;;;;15.20;6.00;;;;;;;3.98;62.86;101286.61;104856;1260;64142;-64
2024/01/24 06:11:18;;;;;;;15.20;7.70;;;;;;;4.00;63.03;101279.08;105662;1263;61546;-64
2024/01/24 06:13:45;;;;;;;11.90;5.50;;;;;;;4.06;63.16;101275.20;104899;1263;63743;-65
2024/01/24 06:16:13;;;;;;;15.50;6.20;;;;;;;4.11;63.22;101284.90;104794;1267;59418;-62
2024/01/24 06:18:40;;;;;;;12.10;7.50;;;;;;;4.07;63.21;101285.04;104722;1264;59569;-64
2024/01/24 06:21:09;;;;;;;16.70;7.60;;;;;;;4.05;63.27;101282.69;105233;1260;62906;-61
2024/01/24 06:23:36;;;;;;;19.50;6.80;;;;;;;4.01;63.23;101283.71;105142;1261;61879;-62
2024/01/24 06:26:04;;;;;;;17.80;8.20;;;;;;;3.92;63.28;101279.91;104858;1262;63785;-63
2024/01/24 06:28:33;;;;;;;19.00;8.00;;;;;;;3.82;63.37;101283.04;105125;1267;59753;-62
2024/01/24 06:31:01;;;;;;;14.50;7.40;;;;;;;3.75;63.47;101282.45;105452;1264;59642;-62
2024/01/24 06:33:30;;;;;;;17.60;9.40;;;;;;;3.75;63.47;101290.42;104679;1261;62901;-62
2024/01/24 06:35:58;;;;;;;15.50;8.90;;;;;;;3.77;63.53;101296.59;104706;1261;61345;-59
2024/01/24 06:38:26;;;;;;;16.20;7.80;;;;;;;3.78;63.65;101291.86;105407;1261;64007;-61
2024/01/24 06:40:53;;;;;;;20.40;10.20;;;;;;;3.77;63.77;101287.92;104722;1259;60003;-63
2024/01/24 06:43:21;;;;;;;16.70;7.30;;;;;;;3.74;63.84;101288.20;104691;1261;59762;-63
2024/01/24 06:45:48;;;;;;;18.50;7.80;;;;;;;3.71;64.09;101289.18;104444;1265;64265;-69
2024/01/24 06:48:16;;;;;;;16.10;8.30;;;;;;;3.66;64.22;101287.44;104654;1259;61600;-68
2024/01/24 06:50:44;;;;;;;18.90;8.30;;;;;;;3.62;64.35;101282.41;104792;1261;64236;-71
2024/01/24 06:53:14;;;;;;;16.00;6.30;;;;;;;3.59;64.40;101274.18;104857;1264;59693;-64
2024/01/24 06:55:42;;;;;;;13.90;6.70;;;;;;;3.63;64.47;101268.34;104756;1264;61740;-68
2024/01/24 06:58:09;;;;;;;20.90;5.30;;;;;;;3.76;64.39;101269.05;104717;1270;64205;-66
2024/01/24 07:00:37;;;;;;;13.50;5.80;;;;;;;3.90;64.37;101270.44;105075;1263;60126;-63
2024/01/24 07:03:05;;;;;;;13.30;6.90;;;;;;;4.00;64.19;101270.95;105213;1260;64200;-63
2024/01/24 07:05:33;;;;;;;18.70;8.30;;;;;;;4.06;64.23;101267.73;104708;1263;59775;-62
2024/01/24 07:08:00;;;;;;;17.00;7.20;;;;;;;4.12;64.33;101266.83;105151;1264;59673;-61
2024/01/24 07:10:30;;;;;;;17.00;6.60;;;;;;;4.15;64.20;101260.98;104933;1262;64080;-62
2024/01/24 07:13:01;;;;;;;10.80;4.20;;;;;;;4.17;64.16;101260.88;105093;1261;63487;-64
2024/01/24 07:15:29;;;;;;;14.80;6.20;;;;;;;4.18;64.14;101264.84;104561;1261;64220;-64
2024/01/24 07:17:56;;;;;;;15.90;6.40;;;;;;;4.18;64.09;101252.18;104548;1260;59576;-63
2024/01/24 07:20:24;;;;;;;10.90;4.80;;;;;;;4.20;64.03;101252.09;104658;1264;59700;-64
2024/01/24 07:22:52;;;;;;;12.80;4.40;;;;;;;4.28;63.80;101247.75;104704;1260;62985;-63
2024/01/24 07:25:19;;;;;;;15.10;5.10;;;;;;;4.38;63.54;101245.98;104545;1264;61394;-59
2024/01/24 07:27:48;;;;;;;11.10;4.20;;;;;;;4.44;63.35;101248.50;105498;1265;62520;-60
2024/01/24 07:30:16;;;;;;;10.80;4.10;;;;;;;4.48;63.39;101253.92;107363;1261;59648;-63
2024/01/24 07:32:44;;;;;;;11.80;5.80;;;;;;;4.49;63.39;101252.83;104715;1263;59682;-64
2024/01/24 07:35:12;;;;;;;16.40;6.80;;;;;;;4.46;63.26;101260.06;104860;1264;64626;-63
2024/01/24 07:37:40;;;;;;;14.20;5.40;;;;;;;4.42;63.29;101262.67;104853;1261;62003;-66
2024/01/24 07:40:10;;;;;;;10.20;4.10;;;;;;;4.36;63.21;101258.90;105091;1259;63848;-62
2024/01/24 07:42:38;;;;;;;12.60;4.70;;;;;;;4.29;63.33;101258.67;105042;1264;59657;-66
2024/01/24 07:45:08;;;;;;;14.20;5.30;;;;;;;4.32;63.28;101253.88;106709;1261;59687;-69
2024/01/24 07:47:36;;;;;;;11.50;4.90;;;;;;;4.40;63.18;101253.35;105104;1260;64688;-67
2024/01/24 07:50:06;;;;;;;12.00;4.40;;;;;;;4.50;63.10;101251.42;105207;1260;61364;-65
2024/01/24 07:52:34;;;;;;;14.50;5.40;;;;;;;4.55;63.04;101252.05;105228;1261;65693;-62
2024/01/24 07:55:10;;;;;;;14.30;4.70;;;;;;;4.55;63.11;101249.11;105881;1264;60550;-68
2024/01/24 07:57:40;;;;;;;16.20;5.80;;;;;;;4.56;63.12;101244.74;105884;1260;60539;-68
2024/01/24 08:00:08;;;;;;;14.60;5.30;;;;;;;4.58;63.20;101235.27;106723;1260;65385;-65
2024/01/24 08:02:36;;;;;;;14.40;7.10;;;;;;;4.57;63.10;101227.47;104885;1261;61900;-65
2024/01/24 08:05:04;;;;;;;11.40;4.90;;;;;;;4.57;63.09;101228.02;104604;1257;62866;-59
2024/01/24 08:07:33;;;;;;;10.40;3.80;;;;;;;4.56;63.04;101231.88;105238;1261;60553;-64
2024/01/24 08:10:00;;;;;;;9.50;2.60;;;;;;;4.59;63.04;101230.86;105198;1263;63226;-64
2024/01/24 08:12:29;;;;;;;12.30;4.70;;;;;;;4.70;62.90;101229.55;104565;1261;65942;-65
2024/01/24 08:14:57;;;;;;;11.00;4.40;;;;;;;4.77;62.72;101220.03;104172;1261;61669;-66
2024/01/24 08:17:25;;;;;;;12.90;5.20;;;;;;;4.84;62.65;101211.95;104594;1263;74941;-71
2024/01/24 08:19:53;;;;;;;23.10;15.40;;;;;;;4.88;62.65;101208.15;104549;1263;60460;-64
2024/01/24 08:22:21;;;;;;;10.20;4.20;;;;;;;4.88;62.65;101201.16;104602;1261;60559;-71
2024/01/24 08:24:48;;;;;;;10.10;4.60;;;;;;;4.87;62.60;101199.29;108678;1258;64971;-64
2024/01/24 08:27:17;;;;;;;12.90;6.80;;;;;;;4.84;62.57;101194.20;108680;1260;61553;-63
2024/01/24 08:29:45;;;;;;;11.90;5.10;;;;;;;4.79;62.59;101183.29;108739;1260;63972;-66
2024/01/24 08:32:13;;;;;;;15.20;6.00;;;;;;;4.83;62.54;101181.57;108730;1260;58379;-66
2024/01/24 08:34:40;;;;;;;9.70;4.40;;;;;;;4.95;62.40;101187.98;108746;1257;58585;-70
2024/01/24 08:37:08;;;;;;;14.50;5.40;;;;;;;5.03;62.23;101188.85;108794;1260;67535;-70
2024/01/24 08:39:36;;;;;;;12.10;5.80;;;;;;;5.04;62.13;101178.39;108755;1259;60402;-68
2024/01/24 08:42:04;;;;;;;14.60;6.20;;;;;;;5.02;62.31;101165.60;105150;1261;74903;-64
2024/01/24 08:44:31;;;;;;;17.20;6.40;;;;;;;5.04;62.38;101158.37;105982;1259;60452;-66
2024/01/24 08:46:59;;;;;;;15.50;6.90;;;;;;;5.04;62.36;101151.41;105950;1263;59440;-64
2024/01/24 08:49:27;;;;;;;14.00;6.30;;;;;;;5.01;62.18;101144.42;104793;1261;66056;-63
2024/01/24 08:51:56;;;;;;;15.30;6.20;;;;;;;5.04;62.11;101140.45;105468;1260;60523;-60
2024/01/24 08:54:24;;;;;;;12.70;6.30;;;;;;;5.10;62.11;101143.32;107118;1260;62620;-66
2024/01/24 08:56:53;;;;;;;19.60;6.80;;;;;;;5.15;62.00;101145.69;104847;1260;60661;-67
2024/01/24 08:59:21;;;;;;;17.80;6.10;;;;;;;5.15;62.10;101138.92;105615;1261;60550;-65
2024/01/24 09:01:49;;;;;;;14.80;7.30;;;;;;;5.13;62.19;101136.04;105536;1261;65316;-66
2024/01/24 09:04:17;;;;;;;11.50;5.80;;;;;;;5.11;62.19;101127.66;104604;1264;60448;-63
2024/01/24 09:06:45;;;;;;;18.50;7.30;;;;;;;5.06;62.24;101120.89;104596;1260;64377;-65
2024/01/24 09:09:16;;;;;;;16.70;7.30;;;;;;;5.01;62.36;101110.69;104823;1263;60586;-67
2024/01/24 09:11:44;;;;;;;12.40;5.80;;;;;;;4.99;62.43;101104.70;105019;1259;60850;-69
2024/01/24 09:14:24;;;;;;;14.50;6.00;;;;;;;5.02;62.40;101096.20;104859;1262;65355;-64
2024/01/24 09:16:52;;;;;;;15.20;5.00;;;;;;;5.08;62.34;101092.10;105662;1263;60527;-66
2024/01/24 09:19:22;;;;;;;11.50;5.20;;;;;;;5.15;62.36;101083.78;105523;1264;62658;-67
2024/01/24 09:21:51;;;;;;;15.00;6.10;;;;;;;5.20;62.41;101079.23;105625;1263;60567;-55
2024/01/24 09:24:19;;;;;;;19.10;6.40;;;;;;;5.22;62.43;101074.25;104710;1259;60995;-56
2024/01/24 09:26:50;;;;;;;17.30;5.30;;;;;;;5.19;62.39;101064.83;104811;1260;64939;-55
2024/01/24 09:29:18;;;;;;;16.10;6.60;;;;;;;5.15;62.45;101060.64;104763;1261;62069;-55
2024/01/24 09:31:45;;;;;;;16.30;6.20;;;;;;;5.10;62.51;101053.92;104715;1260;63823;-54
2024/01/24 09:34:14;;;;;;;17.40;5.90;;;;;;;5.08;62.57;101048.31;104661;1261;60478;-55
2024/01/24 09:36:43;;;;;;;13.50;5.30;;;;;;;5.13;62.39;101045.12;107248;1259;59199;-55
2024/01/24 09:39:11;;;;;;;13.80;6.30;;;;;;;5.20;62.27;101040.45;105021;1260;63879;-55
2024/01/24 09:41:41;;;;;;;16.80;7.70;;;;;;;5.26;62.17;101037.56;104786;1263;61431;-55
2024/01/24 09:44:09;;;;;;;16.80;8.20;;;;;;;5.28;62.25;101033.46;105108;1264;63803;-55
2024/01/24 09:46:38;;;;;;;18.10;7.10;;;;;;;5.26;62.33;101026.57;105028;1259;60607;-55
2024/01/24 09:49:06;;;;;;;12.70;6.20;;;;;;;5.23;62.30;101020.48;106901;1259;60689;-57
2024/01/24 09:51:35;;;;;;;14.90;6.10;;;;;;;5.18;62.32;101012.19;105142;1259;65447;-56
2024/01/24 09:54:07;;;;;;;13.80;6.00;;;;;;;5.18;62.48;101006.63;105366;1261;60454;-56
2024/01/24 09:56:36;;;;;;;15.20;5.80;;;;;;;5.21;62.42;100997.80;105182;1260;62615;-56
2024/01/24 09:59:05;;;;;;;15.30;8.10;;;;;;;5.31;62.27;100991.52;104679;1259;60732;-57
2024/01/24 10:01:37;;;;;;;14.40;5.70;;;;;;;5.39;62.17;100984.19;106140;1262;60374;-55
2024/01/24 10:04:06;;;;;;;18.30;8.70;;;;;;;5.42;62.22;100973.63;105230;1259;63848;-54
2024/01/24 10:06:37;;;;;;;16.20;7.20;;;;;;;5.42;62.21;100967.88;105171;1259;63796;-54
2024/01/24 10:09:05;;;;;;;16.40;8.90;;;;;;;5.44;62.27;100967.40;105175;1259;66426;-53
2024/01/24 10:11:35;;;;;;;22.70;8.70;;;;;;;5.46;62.17;100963.54;104857;1260;60546;-54
2024/01/24 10:14:03;;;;;;;22.70;8.70;;;;;;;5.44;62.14;100962.89;104997;1260;60480;-53
2024/01/24 10:16:31;;;;;;;23.50;9.80;;;;;;;5.42;62.11;100959.70;104731;1260;65309;-54
2024/01/24 10:18:59;;;;;;;17.50;7.60;;;;;;;5.46;61.98;100955.88;104716;1264;62568;-54
2024/01/24 10:21:27;;;;;;;14.50;6.70;;;;;;;5.52;61.87;100941.96;104805;1261;65753;-54
2024/01/24 10:23:55;;;;;;;33.50;20.80;;;;;;;5.63;61.64;100928.53;107981;1263;60471;-55
2024/01/24 10:26:23;;;;;;;20.80;8.70;;;;;;;5.69;61.61;100929.29;106336;1259;60573;-54
2024/01/24 10:28:53;;;;;;;20.70;8.90;;;;;;;5.70;61.57;100930.63;104854;1259;63722;-54
2024/01/24 10:31:23;;;;;;;22.20;9.90;;;;;;;5.65;61.70;100928.96;105548;1263;72617;-55
2024/01/24 10:33:57;;;;;;;35.40;22.20;;;;;;;5.71;61.56;100918.41;104840;1261;64325;-55
2024/01/24 10:36:28;;;;;;;19.60;8.40;;;;;;;5.74;61.58;100909.89;105410;1258;61644;-54
2024/01/24 10:39:03;;;;;;;18.40;9.00;;;;;;;5.84;61.30;100902.75;105229;1264;60544;-54
2024/01/24 10:41:32;;;;;;;23.60;9.50;;;;;;;5.91;61.00;100898.17;105394;1259;63779;-54
2024/01/24 10:44:06;;;;;;;31.80;21.50;;;;;;;6.01;60.96;100892.33;105239;1260;62388;-54
2024/01/24 10:46:36;;;;;;;16.10;8.60;;;;;;;6.07;60.91;100894.28;107615;1259;63065;-54
2024/01/24 10:49:07;;;;;;;14.60;7.20;;;;;;;6.12;60.77;100890.34;106024;1264;60475;-56
2024/01/24 10:51:36;;;;;;;19.70;8.30;;;;;;;6.12;60.53;100884.79;104850;1263;60573;-54
2024/01/24 10:54:05;;;;;;;14.00;7.20;;;;;;;6.08;60.41;100876.58;107481;1259;76366;-56
2024/01/24 10:56:33;;;;;;;21.30;9.30;;;;;;;6.08;60.27;100867.40;105066;1261;60335;-55
2024/01/24 10:59:03;;;;;;;21.10;8.20;;;;;;;6.07;60.46;100863.95;106066;1261;71499;-56
2024/01/24 11:01:31;;;;;;;30.80;20.50;;;;;;;6.23;60.32;100860.67;105171;1261;60500;-54
2024/01/24 11:04:00;;;;;;;21.10;9.30;;;;;;;6.39;59.96;100857.20;105263;1259;60570;-54
2024/01/24 11:06:28;;;;;;;17.00;7.80;;;;;;;6.46;59.83;100845.49;105466;1259;75132;-53
2024/01/24 11:09:24;;;;;;;17.10;8.50;;;;;;;6.49;59.67;100843.41;104855;1264;62438;-54
2024/01/24 11:11:53;;;;;;;28.80;11.20;;;;;;;6.50;59.54;100830.45;104837;1260;65993;-53
2024/01/24 11:14:31;;;;;;;17.60;6.80;;;;;;;6.50;59.51;100826.09;104740;1261;60705;-54
2024/01/24 11:17:03;;;;;;;16.90;7.90;;;;;;;6.50;59.48;100823.95;105273;1263;62170;-54
2024/01/24 11:19:31;;;;;;;17.20;10.00;;;;;;;6.47;59.54;100822.75;107700;1261;66107;-54
2024/01/24 11:22:06;;;;;;;16.30;7.10;;;;;;;6.51;59.34;100813.64;104670;1261;72804;-54
2024/01/24 11:24:46;;;;;;;31.30;21.40;;;;;;;6.58;59.03;100805.44;104703;1260;63950;-53
2024/01/24 11:27:30;;;;;;;14.80;7.50;;;;;;;6.69;58.85;100797.48;104786;1264;61158;-54
2024/01/24 11:30:21;;;;;;;19.90;7.80;;;;;;;6.77;58.64;100795.99;105357;1263;60463;-55
2024/01/24 11:32:55;;;;;;;17.10;8.20;;;;;;;6.79;58.71;100792.89;105733;1260;66018;-54
2024/01/24 11:35:37;;;;;;;15.90;8.40;;;;;;;6.82;58.55;100789.20;105517;1259;61914;-57